createdAt,value
2019-02-03T00:00:11.691Z,0
2019-02-03T00:01:11.962Z,0
2019-02-03T00:02:12.930Z,0
2019-02-03T00:03:13.350Z,0
2019-02-03T00:04:16.856Z,0
2019-02-03T00:05:15.618Z,0
2019-02-03T00:06:16.319Z,0
2019-02-03T00:07:17.292Z,0
2019-02-03T00:08:17.861Z,0
2019-02-03T00:09:20.224Z,0
2019-02-03T00:10:20.433Z,0
2019-02-03T00:11:22.447Z,0
2019-02-03T00:12:23.135Z,0
2019-02-03T00:13:24.451Z,0
2019-02-03T00:14:25.136Z,0
2019-02-03T00:15:25.599Z,0
2019-02-03T00:16:26.613Z,0
2019-02-03T00:17:27.601Z,0
2019-02-03T00:18:28.188Z,0
2019-02-03T00:19:30.484Z,0
2019-02-03T00:20:31.203Z,0
2019-02-03T00:21:31.616Z,0
2019-02-03T00:22:32.976Z,0
2019-02-03T00:23:35.016Z,0
2019-02-03T00:24:33.847Z,0
2019-02-03T00:25:34.532Z,0
2019-02-03T00:26:35.653Z,0
2019-02-03T00:27:35.794Z,0
2019-02-03T00:28:36.355Z,0
2019-02-03T00:29:36.771Z,0
2019-02-03T00:30:38.031Z,0
2019-02-03T00:31:39.170Z,0
2019-02-03T00:32:40.458Z,0
2019-02-03T00:33:40.733Z,0
2019-02-03T00:34:41.728Z,0
2019-02-03T00:35:42.722Z,0
2019-02-03T00:36:43.704Z,0
2019-02-03T00:37:44.793Z,0
2019-02-03T00:38:30.994Z,0
2019-02-03T00:39:34.083Z,0
2019-02-03T00:40:33.465Z,0
2019-02-03T00:41:34.041Z,0
2019-02-03T00:42:34.067Z,0
2019-02-03T00:43:35.041Z,0
2019-02-03T00:44:35.759Z,0
2019-02-03T00:45:36.565Z,0
2019-02-03T00:46:37.254Z,0
2019-02-03T00:47:37.682Z,0
2019-02-03T00:48:40.362Z,0
2019-02-03T00:49:40.302Z,0
2019-02-03T00:50:40.447Z,0
2019-02-03T00:51:42.011Z,0
2019-02-03T00:52:42.199Z,0
2019-02-03T00:53:43.177Z,0
2019-02-03T00:54:42.738Z,0
2019-02-03T00:55:43.724Z,0
2019-02-03T00:56:44.421Z,0
2019-02-03T00:57:47.766Z,0
2019-02-03T00:58:45.660Z,0
2019-02-03T00:59:47.090Z,0
2019-02-03T01:00:47.570Z,0
2019-02-03T01:01:48.820Z,0
2019-02-03T01:02:49.664Z,0
2019-02-03T01:03:51.197Z,0
2019-02-03T01:04:50.645Z,0
2019-02-03T01:05:51.785Z,0
2019-02-03T01:06:54.955Z,0
2019-02-03T01:07:53.897Z,0
2019-02-03T01:08:55.186Z,0
2019-02-03T01:10:08.277Z,0
2019-02-03T01:11:08.980Z,0
2019-02-03T01:12:10.657Z,0
2019-02-03T01:13:10.372Z,0
2019-02-03T01:14:11.373Z,0
2019-02-03T01:15:12.348Z,0
2019-02-03T01:16:12.558Z,0
2019-02-03T01:17:14.338Z,0
2019-02-03T01:18:17.354Z,0
2019-02-03T01:19:14.402Z,0
2019-02-03T01:20:15.941Z,0
2019-02-03T01:21:15.120Z,0
2019-02-03T01:22:16.848Z,0
2019-02-03T01:23:17.819Z,0
2019-02-03T01:24:18.254Z,0
2019-02-03T01:25:19.268Z,0
2019-02-03T01:26:21.096Z,0
2019-02-03T01:27:19.800Z,0
2019-02-03T01:28:20.820Z,0
2019-02-03T01:29:20.277Z,0
2019-02-03T01:30:21.270Z,0
2019-02-03T01:31:22.303Z,0
2019-02-03T01:32:23.029Z,0
2019-02-03T01:33:23.202Z,0
2019-02-03T01:34:25.200Z,0
2019-02-03T01:35:27.768Z,0
2019-02-03T01:36:26.697Z,0
2019-02-03T01:37:45.027Z,0
2019-02-03T01:37:53.534Z,0
2019-02-03T01:38:53.794Z,0
2019-02-03T01:39:53.221Z,0
2019-02-03T01:40:54.946Z,0
2019-02-03T01:41:55.664Z,0
2019-02-03T01:42:56.082Z,0
2019-02-03T01:43:57.508Z,0
2019-02-03T01:44:58.755Z,0
2019-02-03T01:45:59.458Z,0
2019-02-03T01:46:59.990Z,0
2019-02-03T01:48:01.643Z,0
2019-02-03T01:49:01.635Z,0
2019-02-03T01:50:02.282Z,0
2019-02-03T01:51:03.013Z,0
2019-02-03T01:52:03.547Z,0
2019-02-03T01:53:04.657Z,0
2019-02-03T01:54:05.374Z,0
2019-02-03T01:55:05.518Z,0
2019-02-03T01:56:06.223Z,0
2019-02-03T01:57:07.822Z,0
2019-02-03T01:58:07.254Z,0
2019-02-03T01:59:08.172Z,0
2019-02-03T02:00:09.147Z,0
2019-02-03T02:01:09.290Z,0
2019-02-03T02:02:10.706Z,0
2019-02-03T02:03:11.405Z,0
2019-02-03T02:04:12.403Z,0
2019-02-03T02:05:13.148Z,0
2019-02-03T02:06:15.087Z,0
2019-02-03T02:07:15.068Z,0
2019-02-03T02:08:15.484Z,0
2019-02-03T02:09:16.342Z,0
2019-02-03T02:10:16.529Z,0
2019-02-03T02:11:17.234Z,0
2019-02-03T02:12:17.661Z,0
2019-02-03T02:13:18.220Z,0
2019-02-03T02:14:18.929Z,0
2019-02-03T02:15:21.802Z,0
2019-02-03T02:16:21.061Z,0
2019-02-03T02:17:21.875Z,0
2019-02-03T02:18:22.840Z,0
2019-02-03T02:19:23.809Z,0
2019-02-03T02:20:23.967Z,0
2019-02-03T02:21:24.676Z,0
2019-02-03T02:22:26.492Z,0
2019-02-03T02:23:26.915Z,0
2019-02-03T02:24:29.809Z,0
2019-02-03T02:25:28.387Z,0
2019-02-03T02:26:29.382Z,0
2019-02-03T02:27:29.926Z,0
2019-02-03T02:28:29.498Z,0
2019-02-03T02:29:29.968Z,0
2019-02-03T02:30:30.156Z,0
2019-02-03T02:31:31.184Z,0
2019-02-03T02:32:33.441Z,0
2019-02-03T02:33:33.858Z,0
2019-02-03T02:34:33.609Z,0
2019-02-03T02:35:34.701Z,0
2019-02-03T02:36:35.416Z,0
2019-02-03T02:37:36.397Z,0
2019-02-03T02:38:37.672Z,0
2019-02-03T02:39:37.873Z,0
2019-02-03T02:40:38.621Z,0
2019-02-03T02:41:40.784Z,0
2019-02-03T02:42:40.343Z,0
2019-02-03T02:43:41.940Z,0
2019-02-03T02:44:42.191Z,0
2019-02-03T02:45:42.889Z,0
2019-02-03T02:46:43.694Z,0
2019-02-03T02:47:44.549Z,0
2019-02-03T02:48:44.988Z,0
2019-02-03T02:49:45.841Z,0
2019-02-03T02:50:49.124Z,0
2019-02-03T02:51:48.157Z,0
2019-02-03T02:52:47.908Z,0
2019-02-03T02:53:48.345Z,0
2019-02-03T02:54:48.776Z,0
2019-02-03T02:55:48.965Z,0
2019-02-03T02:56:49.670Z,0
2019-02-03T02:57:50.692Z,0
2019-02-03T02:58:51.717Z,0
2019-02-03T02:59:53.681Z,0
2019-02-03T03:00:52.930Z,0
2019-02-03T03:01:53.914Z,0
2019-02-03T03:02:54.204Z,0
2019-02-03T03:03:54.904Z,0
2019-02-03T03:04:55.637Z,0
2019-02-03T03:05:56.630Z,0
2019-02-03T03:06:57.157Z,0
2019-02-03T03:07:58.695Z,0
2019-02-03T03:08:59.996Z,0
2019-02-03T03:09:59.380Z,0
2019-02-03T03:11:00.081Z,0
2019-02-03T03:12:01.356Z,0
2019-02-03T03:13:02.076Z,0
2019-02-03T03:14:03.349Z,0
2019-02-03T03:15:03.352Z,0
2019-02-03T03:16:04.063Z,0
2019-02-03T03:17:05.457Z,0
2019-02-03T03:18:07.651Z,0
2019-02-03T03:19:06.971Z,0
2019-02-03T03:20:08.167Z,0
2019-02-03T03:21:08.931Z,0
2019-02-03T03:22:10.201Z,0
2019-02-03T03:23:10.463Z,0
2019-02-03T03:24:10.446Z,0
2019-02-03T03:25:11.712Z,0
2019-02-03T03:26:11.437Z,0
2019-02-03T03:27:12.155Z,0
2019-02-03T03:28:12.449Z,0
2019-02-03T03:29:14.791Z,0
2019-02-03T03:30:15.584Z,0
2019-02-03T03:31:17.067Z,0
2019-02-03T03:32:18.930Z,0
2019-02-03T03:33:20.009Z,0
2019-02-03T03:34:19.406Z,0
2019-02-03T03:35:20.784Z,0
2019-02-03T03:36:22.815Z,0
2019-02-03T03:37:22.229Z,0
2019-02-03T03:38:35.981Z,0
2019-02-03T03:39:37.121Z,0
2019-02-03T03:40:37.286Z,0
2019-02-03T03:41:38.712Z,0
2019-02-03T03:42:39.407Z,0
2019-02-03T03:43:40.123Z,0
2019-02-03T03:44:41.094Z,0
2019-02-03T03:45:42.365Z,0
2019-02-03T03:46:43.732Z,0
2019-02-03T03:47:43.161Z,0
2019-02-03T03:48:45.023Z,0
2019-02-03T03:49:44.966Z,0
2019-02-03T03:50:45.900Z,0
2019-02-03T03:51:46.642Z,0
2019-02-03T03:52:47.643Z,0
2019-02-03T03:53:47.670Z,0
2019-02-03T03:54:47.832Z,0
2019-02-03T03:55:50.879Z,0
2019-02-03T03:56:50.150Z,0
2019-02-03T03:57:51.450Z,0
2019-02-03T03:58:52.285Z,0
2019-02-03T03:59:51.978Z,0
2019-02-03T04:00:52.447Z,0
2019-02-03T04:01:53.473Z,0
2019-02-03T04:02:55.365Z,0
2019-02-03T04:03:55.313Z,0
2019-02-03T04:04:58.616Z,0
2019-02-03T04:05:58.001Z,0
2019-02-03T04:06:58.870Z,0
2019-02-03T04:07:59.865Z,0
2019-02-03T04:09:01.429Z,0
2019-02-03T04:10:01.055Z,0
2019-02-03T04:11:01.899Z,0
2019-02-03T04:12:02.923Z,0
2019-02-03T04:13:04.238Z,0
2019-02-03T04:14:06.534Z,0
2019-02-03T04:15:05.990Z,0
2019-02-03T04:16:06.046Z,0
2019-02-03T04:17:06.750Z,0
2019-02-03T04:18:07.252Z,0
2019-02-03T04:19:07.999Z,0
2019-02-03T04:20:08.209Z,0
2019-02-03T04:21:09.655Z,0
2019-02-03T04:22:10.563Z,0
2019-02-03T04:23:12.969Z,0
2019-02-03T04:24:11.180Z,0
2019-02-03T04:25:11.891Z,0
2019-02-03T04:26:13.564Z,0
2019-02-03T04:27:14.552Z,0
2019-02-03T04:28:16.386Z,0
2019-02-03T04:29:16.675Z,0
2019-02-03T04:30:18.090Z,0
2019-02-03T04:31:17.790Z,0
2019-02-03T04:32:20.942Z,0
2019-02-03T04:33:19.525Z,0
2019-02-03T04:34:20.240Z,0
2019-02-03T04:35:22.266Z,0
2019-02-03T04:36:22.549Z,0
2019-02-03T04:37:21.909Z,0
2019-02-03T04:38:22.918Z,0
2019-02-03T04:39:23.521Z,0
2019-02-03T04:40:24.980Z,0
2019-02-03T04:41:28.189Z,0
2019-02-03T04:42:26.457Z,0
2019-02-03T04:43:28.036Z,0
2019-02-03T04:44:27.743Z,0
2019-02-03T04:45:28.787Z,0
2019-02-03T04:46:29.504Z,0
2019-02-03T04:47:30.208Z,0
2019-02-03T04:48:31.576Z,0
2019-02-03T04:49:33.217Z,0
2019-02-03T04:50:37.104Z,0
2019-02-03T04:51:33.249Z,0
2019-02-03T04:52:34.286Z,0
2019-02-03T04:53:35.316Z,0
2019-02-03T04:54:35.577Z,0
2019-02-03T04:55:36.296Z,0
2019-02-03T04:56:38.172Z,0
2019-02-03T04:57:37.587Z,0
2019-02-03T04:58:39.905Z,0
2019-02-03T04:59:39.630Z,0
2019-02-03T05:00:40.342Z,0
2019-02-03T05:01:41.400Z,0
2019-02-03T05:02:42.649Z,0
2019-02-03T05:03:42.965Z,0
2019-02-03T05:04:43.846Z,0
2019-02-03T05:05:44.834Z,0
2019-02-03T05:06:45.582Z,0
2019-02-03T05:07:48.059Z,0
2019-02-03T05:08:49.661Z,0
2019-02-03T05:09:49.454Z,0
2019-02-03T05:10:49.340Z,0
2019-02-03T05:11:50.628Z,0
2019-02-03T05:12:50.664Z,0
2019-02-03T05:13:51.653Z,0
2019-02-03T05:14:52.100Z,0
2019-02-03T05:15:52.830Z,0
2019-02-03T05:16:55.140Z,0
2019-02-03T05:17:55.269Z,0
2019-02-03T05:18:56.155Z,0
2019-02-03T05:19:56.589Z,0
2019-02-03T05:20:58.326Z,0
2019-02-03T05:21:58.741Z,0
2019-02-03T05:23:00.473Z,0
2019-02-03T05:24:01.536Z,0
2019-02-03T05:25:02.842Z,0
2019-02-03T05:26:04.078Z,0
2019-02-03T05:27:06.474Z,0
2019-02-03T05:28:06.617Z,0
2019-02-03T05:29:07.320Z,0
2019-02-03T05:30:07.756Z,0
2019-02-03T05:31:08.949Z,0
2019-02-03T05:32:09.963Z,0
2019-02-03T05:33:10.967Z,0
2019-02-03T05:34:11.411Z,0
2019-02-03T05:35:13.497Z,0
2019-02-03T05:36:12.923Z,0
2019-02-03T05:37:13.442Z,0
2019-02-03T05:38:14.554Z,0
2019-02-03T05:39:27.856Z,0
2019-02-03T05:40:28.588Z,0
2019-02-03T05:41:29.672Z,0
2019-02-03T05:42:30.385Z,0
2019-02-03T05:43:31.645Z,0
2019-02-03T05:44:32.086Z,0
2019-02-03T05:45:32.790Z,0
2019-02-03T05:46:35.529Z,0
2019-02-03T05:47:34.656Z,0
2019-02-03T05:48:36.199Z,0
2019-02-03T05:49:36.171Z,0
2019-02-03T05:50:36.863Z,0
2019-02-03T05:51:37.289Z,0
2019-02-03T05:52:38.714Z,0
2019-02-03T05:53:40.284Z,0
2019-02-03T05:54:40.016Z,0
2019-02-03T05:55:42.720Z,0
2019-02-03T05:56:42.238Z,0
2019-02-03T05:57:42.939Z,0
2019-02-03T05:58:43.665Z,0
2019-02-03T05:59:44.150Z,0
2019-02-03T06:00:45.664Z,0
2019-02-03T06:01:46.105Z,0
2019-02-03T06:02:46.846Z,0
2019-02-03T06:03:47.036Z,0
2019-02-03T06:04:50.405Z,0
2019-02-03T06:05:49.638Z,0
2019-02-03T06:06:50.149Z,0
2019-02-03T06:07:50.705Z,0
2019-02-03T06:08:51.550Z,0
2019-02-03T06:09:52.556Z,0
2019-02-03T06:10:53.268Z,0
2019-02-03T06:11:53.963Z,0
2019-02-03T06:12:55.282Z,0
2019-02-03T06:13:58.701Z,0
2019-02-03T06:14:57.838Z,0
2019-02-03T06:15:58.383Z,0
2019-02-03T06:16:59.112Z,0
2019-02-03T06:17:59.828Z,0
2019-02-03T06:19:00.831Z,0
2019-02-03T06:20:02.037Z,0
2019-02-03T06:21:03.166Z,0
2019-02-03T06:22:03.895Z,0
2019-02-03T06:23:07.027Z,0
2019-02-03T06:24:05.522Z,0
2019-02-03T06:25:06.379Z,0
2019-02-03T06:26:06.643Z,0
2019-02-03T06:27:07.634Z,0
2019-02-03T06:28:08.753Z,0
2019-02-03T06:29:10.034Z,0
2019-02-03T06:30:10.187Z,0
2019-02-03T06:31:15.064Z,0
2019-02-03T06:32:13.600Z,0
2019-02-03T06:33:12.482Z,0
2019-02-03T06:34:13.970Z,0
2019-02-03T06:35:15.224Z,0
2019-02-03T06:36:16.205Z,0
2019-02-03T06:37:16.967Z,0
2019-02-03T06:38:17.683Z,0
2019-02-03T06:39:18.383Z,0
2019-02-03T06:40:19.491Z,0
2019-02-03T06:41:22.200Z,0
2019-02-03T06:42:22.047Z,0
2019-02-03T06:43:22.886Z,0
2019-02-03T06:44:23.323Z,0
2019-02-03T06:45:23.746Z,0
2019-02-03T06:46:23.899Z,0
2019-02-03T06:47:25.163Z,5.63
2019-02-03T06:48:26.145Z,5.63
2019-02-03T06:49:27.694Z,5.63
2019-02-03T06:50:29.589Z,5.63
2019-02-03T06:51:29.017Z,5.63
2019-02-03T06:52:29.726Z,5.63
2019-02-03T06:53:29.883Z,5.63
2019-02-03T06:54:31.303Z,5.63
2019-02-03T06:55:32.528Z,5.63
2019-02-03T06:56:34.392Z,5.63
2019-02-03T06:57:34.378Z,5.63
2019-02-03T06:58:34.811Z,5.63
2019-02-03T06:59:37.688Z,5.63
2019-02-03T06:59:53.568Z,5.63
2019-02-03T07:00:01.066Z,5.63
2019-02-03T07:00:59.850Z,11.25
2019-02-03T07:02:01.837Z,11.25
2019-02-03T07:03:03.312Z,11.25
2019-02-03T07:04:03.077Z,11.25
2019-02-03T07:05:03.690Z,11.25
2019-02-03T07:06:04.401Z,11.25
2019-02-03T07:07:05.404Z,11.25
2019-02-03T07:08:05.909Z,16.88
2019-02-03T07:09:06.062Z,16.88
2019-02-03T07:10:07.772Z,16.88
2019-02-03T07:11:08.643Z,16.88
2019-02-03T07:12:11.891Z,16.88
2019-02-03T07:13:09.702Z,16.88
2019-02-03T07:14:10.134Z,22.5
2019-02-03T07:15:11.131Z,22.5
2019-02-03T07:16:12.210Z,22.5
2019-02-03T07:17:12.743Z,22.5
2019-02-03T07:18:13.180Z,22.5
2019-02-03T07:19:13.340Z,28.13
2019-02-03T07:20:14.126Z,28.13
2019-02-03T07:21:15.679Z,28.13
2019-02-03T07:22:15.954Z,33.75
2019-02-03T07:23:16.106Z,33.75
2019-02-03T07:24:17.550Z,33.75
2019-02-03T07:25:18.991Z,39.38
2019-02-03T07:26:19.217Z,39.38
2019-02-03T07:27:20.210Z,39.38
2019-02-03T07:28:20.904Z,45
2019-02-03T07:29:21.674Z,45
2019-02-03T07:30:21.958Z,45
2019-02-03T07:31:22.511Z,45
2019-02-03T07:32:23.511Z,45
2019-02-03T07:33:24.184Z,45
2019-02-03T07:34:25.183Z,45
2019-02-03T07:35:26.176Z,45
2019-02-03T07:36:26.640Z,45
2019-02-03T07:37:27.346Z,50.63
2019-02-03T07:38:28.316Z,50.63
2019-02-03T07:39:28.738Z,50.63
2019-02-03T07:40:29.764Z,56.25
2019-02-03T07:41:29.729Z,56.25
2019-02-03T07:42:31.288Z,56.25
2019-02-03T07:43:31.558Z,56.25
2019-02-03T07:44:31.704Z,56.25
2019-02-03T07:45:33.141Z,61.88
2019-02-03T07:46:34.138Z,61.88
2019-02-03T07:47:36.855Z,61.88
2019-02-03T07:48:35.327Z,61.88
2019-02-03T07:49:35.761Z,61.88
2019-02-03T07:50:36.198Z,61.88
2019-02-03T07:51:37.124Z,67.5
2019-02-03T07:52:37.293Z,67.5
2019-02-03T07:53:38.717Z,67.5
2019-02-03T07:54:39.311Z,67.5
2019-02-03T07:55:40.029Z,67.5
2019-02-03T07:56:42.808Z,73.13
2019-02-03T07:57:41.723Z,78.75
2019-02-03T07:58:42.891Z,78.75
2019-02-03T07:59:43.621Z,78.75
2019-02-03T08:00:44.182Z,78.75
2019-02-03T08:01:45.069Z,84.38
2019-02-03T08:02:45.590Z,84.38
2019-02-03T08:03:46.028Z,84.38
2019-02-03T08:04:47.901Z,84.38
2019-02-03T08:05:48.167Z,84.38
2019-02-03T08:06:48.972Z,90
2019-02-03T08:07:49.966Z,90
2019-02-03T08:09:04.830Z,90
2019-02-03T08:10:05.397Z,90
2019-02-03T08:11:07.462Z,90
2019-02-03T08:12:08.178Z,90
2019-02-03T08:13:08.608Z,90
2019-02-03T08:14:10.043Z,95.63
2019-02-03T08:15:10.500Z,95.63
2019-02-03T08:16:12.547Z,95.63
2019-02-03T08:17:12.370Z,90
2019-02-03T08:18:13.085Z,95.63
2019-02-03T08:19:13.075Z,101.25
2019-02-03T08:20:14.514Z,95.63
2019-02-03T08:21:15.069Z,101.25
2019-02-03T08:22:15.904Z,101.25
2019-02-03T08:23:16.392Z,101.25
2019-02-03T08:24:17.380Z,101.25
2019-02-03T08:25:20.071Z,101.25
2019-02-03T08:26:17.927Z,101.25
2019-02-03T08:27:18.936Z,101.25
2019-02-03T08:28:19.630Z,101.25
2019-02-03T08:29:20.056Z,106.88
2019-02-03T08:30:21.541Z,106.88
2019-02-03T08:31:22.262Z,101.25
2019-02-03T08:32:23.049Z,106.88
2019-02-03T08:33:24.138Z,101.25
2019-02-03T08:34:29.400Z,101.25
2019-02-03T08:35:26.020Z,101.25
2019-02-03T08:36:27.023Z,101.25
2019-02-03T08:37:27.573Z,112.5
2019-02-03T08:38:28.272Z,118.13
2019-02-03T08:39:28.703Z,123.75
2019-02-03T08:40:43.724Z,123.75
2019-02-03T08:41:44.867Z,129.38
2019-02-03T08:42:46.175Z,123.75
2019-02-03T08:43:46.253Z,123.75
2019-02-03T08:44:49.320Z,129.38
2019-02-03T08:45:49.300Z,140.63
2019-02-03T08:46:50.116Z,140.63
2019-02-03T08:47:51.111Z,146.25
2019-02-03T08:48:51.819Z,146.25
2019-02-03T08:49:52.813Z,151.88
2019-02-03T08:50:53.515Z,157.5
2019-02-03T08:51:53.405Z,151.88
2019-02-03T08:52:54.971Z,151.88
2019-02-03T08:53:56.964Z,140.63
2019-02-03T08:55:07.588Z,140.63
2019-02-03T08:56:08.594Z,135
2019-02-03T08:57:08.091Z,135
2019-02-03T08:58:08.789Z,140.63
2019-02-03T08:59:09.504Z,146.25
2019-02-03T09:00:10.209Z,157.5
2019-02-03T09:01:10.495Z,151.88
2019-02-03T09:02:11.208Z,146.25
2019-02-03T09:03:12.210Z,146.25
2019-02-03T09:04:13.942Z,157.5
2019-02-03T09:05:14.282Z,163.13
2019-02-03T09:06:15.465Z,168.75
2019-02-03T09:07:16.219Z,174.38
2019-02-03T09:08:16.690Z,174.38
2019-02-03T09:09:17.403Z,180
2019-02-03T09:10:17.832Z,180
2019-02-03T09:11:19.827Z,185.63
2019-02-03T09:12:19.829Z,180
2019-02-03T09:13:22.133Z,180
2019-02-03T09:14:21.109Z,185.63
2019-02-03T09:15:22.653Z,180
2019-02-03T09:16:22.678Z,185.63
2019-02-03T09:17:23.392Z,191.25
2019-02-03T09:18:29.178Z,191.25
2019-02-03T09:18:43.619Z,196.88
2019-02-03T09:19:19.792Z,202.5
2019-02-03T09:19:51.064Z,196.88
2019-02-03T09:20:51.138Z,208.13
2019-02-03T09:21:52.513Z,219.38
2019-02-03T09:22:53.005Z,225
2019-02-03T09:23:54.108Z,236.25
2019-02-03T09:24:54.578Z,241.88
2019-02-03T09:25:56.734Z,253.13
2019-02-03T09:26:56.446Z,247.5
2019-02-03T09:27:56.607Z,241.88
2019-02-03T09:28:56.961Z,253.13
2019-02-03T09:29:57.694Z,253.13
2019-02-03T09:30:59.097Z,241.88
2019-02-03T09:31:59.094Z,247.5
2019-02-03T09:33:00.251Z,236.25
2019-02-03T09:34:00.228Z,247.5
2019-02-03T09:35:02.753Z,270
2019-02-03T09:36:01.915Z,270
2019-02-03T09:37:03.171Z,253.13
2019-02-03T09:38:02.878Z,241.88
2019-02-03T09:39:03.616Z,258.75
2019-02-03T09:40:04.890Z,264.38
2019-02-03T09:41:06.172Z,270
2019-02-03T09:42:06.330Z,264.38
2019-02-03T09:43:07.857Z,258.75
2019-02-03T09:44:10.613Z,264.38
2019-02-03T09:45:08.631Z,258.75
2019-02-03T09:46:09.063Z,264.38
2019-02-03T09:47:09.347Z,258.75
2019-02-03T09:48:09.515Z,264.38
2019-02-03T09:49:11.239Z,230.63
2019-02-03T09:50:29.736Z,208.13
2019-02-03T09:50:39.766Z,208.13
2019-02-03T09:51:55.964Z,208.13
2019-02-03T09:52:03.074Z,208.13
2019-02-03T09:53:03.017Z,208.13
2019-02-03T09:54:03.999Z,219.38
2019-02-03T09:55:04.704Z,202.5
2019-02-03T09:56:05.430Z,191.25
2019-02-03T09:57:06.171Z,191.25
2019-02-03T09:58:07.455Z,185.63
2019-02-03T09:59:08.447Z,185.63
2019-02-03T10:00:08.977Z,168.75
2019-02-03T10:01:08.995Z,202.5
2019-02-03T10:02:10.001Z,264.38
2019-02-03T10:03:10.424Z,292.5
2019-02-03T10:04:10.591Z,298.13
2019-02-03T10:05:11.737Z,303.75
2019-02-03T10:06:13.178Z,303.75
2019-02-03T10:07:14.059Z,303.75
2019-02-03T10:08:18.163Z,298.13
2019-02-03T10:09:19.779Z,315
2019-02-03T10:10:19.130Z,337.5
2019-02-03T10:11:22.785Z,326.25
2019-02-03T10:12:20.468Z,326.25
2019-02-03T10:13:21.698Z,343.13
2019-02-03T10:14:21.853Z,348.75
2019-02-03T10:15:23.577Z,337.5
2019-02-03T10:16:23.724Z,326.25
2019-02-03T10:17:26.101Z,331.88
2019-02-03T10:18:25.544Z,337.5
2019-02-03T10:19:27.023Z,337.5
2019-02-03T10:20:27.482Z,331.88
2019-02-03T10:21:28.221Z,326.25
2019-02-03T10:22:29.917Z,315
2019-02-03T10:23:30.788Z,298.13
2019-02-03T10:24:44.686Z,298.13
2019-02-03T10:25:43.558Z,275.63
2019-02-03T10:26:44.647Z,275.63
2019-02-03T10:27:45.085Z,275.63
2019-02-03T10:28:50.076Z,286.88
2019-02-03T10:29:49.823Z,292.5
2019-02-03T10:30:51.089Z,309.38
2019-02-03T10:31:51.516Z,309.38
2019-02-03T10:32:52.783Z,315
2019-02-03T10:33:52.230Z,303.75
2019-02-03T10:34:53.228Z,292.5
2019-02-03T10:35:53.800Z,286.88
2019-02-03T10:36:54.499Z,281.25
2019-02-03T10:37:56.762Z,264.38
2019-02-03T10:38:56.183Z,264.38
2019-02-03T10:39:56.630Z,281.25
2019-02-03T10:40:56.788Z,286.88
2019-02-03T10:41:57.257Z,270
2019-02-03T10:42:58.286Z,241.88
2019-02-03T10:43:59.297Z,213.75
2019-02-03T10:44:59.455Z,196.88
2019-02-03T10:46:01.516Z,180
2019-02-03T10:47:03.919Z,180
2019-02-03T10:48:03.272Z,180
2019-02-03T10:49:04.472Z,168.75
2019-02-03T10:50:04.835Z,157.5
2019-02-03T10:51:04.491Z,168.75
2019-02-03T10:52:05.493Z,180
2019-02-03T10:53:05.931Z,174.38
2019-02-03T10:54:07.190Z,157.5
2019-02-03T10:55:11.179Z,129.38
2019-02-03T10:56:08.357Z,123.75
2019-02-03T10:57:08.555Z,135
2019-02-03T10:58:08.896Z,168.75
2019-02-03T10:59:10.613Z,196.88
2019-02-03T11:00:23.890Z,219.38
2019-02-03T11:01:23.010Z,230.63
2019-02-03T11:02:23.221Z,247.5
2019-02-03T11:03:23.426Z,253.13
2019-02-03T11:04:24.542Z,247.5
2019-02-03T11:05:26.835Z,241.88
2019-02-03T11:06:24.968Z,208.13
2019-02-03T11:07:27.254Z,202.5
2019-02-03T11:08:28.010Z,213.75
2019-02-03T11:09:28.894Z,230.63
2019-02-03T11:10:29.676Z,219.38
2019-02-03T11:11:41.615Z,196.88
2019-02-03T11:12:42.916Z,236.25
2019-02-03T11:13:43.026Z,241.88
2019-02-03T11:14:44.008Z,258.75
2019-02-03T11:15:45.358Z,241.88
2019-02-03T11:16:45.723Z,253.13
2019-02-03T11:17:46.582Z,258.75
2019-02-03T11:18:47.374Z,281.25
2019-02-03T11:19:48.752Z,281.25
2019-02-03T11:20:49.148Z,281.25
2019-02-03T11:21:49.943Z,281.25
2019-02-03T11:22:50.306Z,281.25
2019-02-03T11:23:51.128Z,270
2019-02-03T11:24:51.407Z,247.5
2019-02-03T11:25:53.054Z,253.13
2019-02-03T11:26:52.640Z,247.5
2019-02-03T11:27:54.013Z,241.88
2019-02-03T11:28:55.404Z,258.75
2019-02-03T11:29:56.226Z,253.13
2019-02-03T11:30:58.145Z,253.13
2019-02-03T11:32:00.053Z,253.13
2019-02-03T11:33:12.694Z,264.38
2019-02-03T11:34:11.610Z,241.88
2019-02-03T11:35:12.184Z,225
2019-02-03T11:36:12.942Z,219.38
2019-02-03T11:37:13.482Z,196.88
2019-02-03T11:38:13.701Z,236.25
2019-02-03T11:39:14.014Z,275.63
2019-02-03T11:40:14.753Z,315
2019-02-03T11:41:15.795Z,320.63
2019-02-03T11:42:17.049Z,320.63
2019-02-03T11:43:16.412Z,309.38
2019-02-03T11:44:17.425Z,275.63
2019-02-03T11:45:18.455Z,258.75
2019-02-03T11:46:19.498Z,225
2019-02-03T11:47:19.996Z,219.38
2019-02-03T11:48:20.885Z,230.63
2019-02-03T11:49:21.364Z,241.88
2019-02-03T11:50:24.042Z,270
2019-02-03T11:51:23.431Z,275.63
2019-02-03T11:52:24.452Z,270
2019-02-03T11:53:24.924Z,286.88
2019-02-03T11:54:25.724Z,298.13
2019-02-03T11:55:26.165Z,320.63
2019-02-03T11:56:27.891Z,331.88
2019-02-03T11:57:28.614Z,343.13
2019-02-03T11:58:29.106Z,354.38
2019-02-03T11:59:30.870Z,360
2019-02-03T12:00:30.586Z,365.63
2019-02-03T12:01:31.846Z,360
2019-02-03T12:02:44.901Z,343.13
2019-02-03T12:03:45.469Z,309.38
2019-02-03T12:04:45.628Z,315
2019-02-03T12:05:47.332Z,315
2019-02-03T12:06:48.179Z,331.88
2019-02-03T12:07:49.015Z,343.13
2019-02-03T12:08:49.721Z,320.63
2019-02-03T12:09:50.141Z,292.5
2019-02-03T12:10:52.734Z,331.88
2019-02-03T12:12:05.970Z,371.25
2019-02-03T12:13:09.146Z,365.63
2019-02-03T12:14:07.521Z,354.38
2019-02-03T12:15:08.242Z,360
2019-02-03T12:16:08.967Z,365.63
2019-02-03T12:17:10.049Z,365.63
2019-02-03T12:18:10.503Z,371.25
2019-02-03T12:19:10.946Z,382.5
2019-02-03T12:20:11.118Z,382.5
2019-02-03T12:21:12.264Z,388.13
2019-02-03T12:22:15.908Z,376.88
2019-02-03T12:23:14.976Z,376.88
2019-02-03T12:24:15.957Z,360
2019-02-03T12:25:16.395Z,315
2019-02-03T12:26:17.100Z,270
2019-02-03T12:27:17.534Z,241.88
2019-02-03T12:28:19.124Z,236.25
2019-02-03T12:29:19.699Z,213.75
2019-02-03T12:30:20.134Z,202.5
2019-02-03T12:31:25.454Z,225
2019-02-03T12:32:22.166Z,258.75
2019-02-03T12:33:23.890Z,298.13
2019-02-03T12:34:24.254Z,320.63
2019-02-03T12:35:25.243Z,331.88
2019-02-03T12:36:25.667Z,331.88
2019-02-03T12:37:26.395Z,343.13
2019-02-03T12:38:27.383Z,348.75
2019-02-03T12:39:27.814Z,360
2019-02-03T12:40:29.932Z,348.75
2019-02-03T12:41:29.632Z,343.13
2019-02-03T12:42:29.909Z,326.25
2019-02-03T12:43:30.334Z,303.75
2019-02-03T12:44:30.492Z,298.13
2019-02-03T12:45:32.101Z,292.5
2019-02-03T12:46:32.820Z,292.5
2019-02-03T12:47:33.553Z,292.5
2019-02-03T12:48:33.716Z,281.25
2019-02-03T12:49:36.511Z,275.63
2019-02-03T12:50:36.355Z,275.63
2019-02-03T12:51:40.488Z,286.88
2019-02-03T12:52:38.205Z,281.25
2019-02-03T12:53:38.362Z,292.5
2019-02-03T12:54:39.433Z,286.88
2019-02-03T12:55:40.146Z,303.75
2019-02-03T12:56:40.960Z,309.38
2019-02-03T12:57:42.389Z,298.13
2019-02-03T12:58:43.241Z,315
2019-02-03T12:59:43.374Z,315
2019-02-03T13:00:44.650Z,309.38
2019-02-03T13:01:45.758Z,315
2019-02-03T13:02:47.139Z,298.13
2019-02-03T13:03:47.042Z,298.13
2019-02-03T13:04:47.746Z,286.88
2019-02-03T13:05:48.173Z,264.38
2019-02-03T13:06:49.918Z,253.13
2019-02-03T13:07:49.905Z,241.88
2019-02-03T13:08:49.833Z,219.38
2019-02-03T13:09:51.095Z,230.63
2019-02-03T13:10:51.531Z,241.88
2019-02-03T13:11:52.229Z,264.38
2019-02-03T13:12:54.072Z,258.75
2019-02-03T13:13:54.067Z,270
2019-02-03T13:14:54.773Z,292.5
2019-02-03T13:15:56.318Z,303.75
2019-02-03T13:16:57.430Z,298.13
2019-02-03T13:17:58.437Z,303.75
2019-02-03T13:18:57.861Z,298.13
2019-02-03T13:19:59.141Z,303.75
2019-02-03T13:20:59.131Z,309.38
2019-02-03T13:22:01.467Z,303.75
2019-02-03T13:23:02.208Z,303.75
2019-02-03T13:23:48.735Z,298.13
2019-02-03T13:24:47.951Z,303.75
2019-02-03T13:25:47.394Z,298.13
2019-02-03T13:26:48.550Z,298.13
2019-02-03T13:27:49.256Z,309.38
2019-02-03T13:28:49.965Z,309.38
2019-02-03T13:29:50.114Z,303.75
2019-02-03T13:30:51.850Z,292.5
2019-02-03T13:31:53.251Z,298.13
2019-02-03T13:32:54.279Z,292.5
2019-02-03T13:33:53.700Z,292.5
2019-02-03T13:34:57.021Z,286.88
2019-02-03T13:35:57.459Z,286.88
2019-02-03T13:36:58.450Z,275.63
2019-02-03T13:37:58.713Z,281.25
2019-02-03T13:38:59.140Z,270
2019-02-03T13:40:00.206Z,286.88
2019-02-03T13:41:00.636Z,286.88
2019-02-03T13:42:04.669Z,258.75
2019-02-03T13:43:04.085Z,253.13
2019-02-03T13:44:04.511Z,241.88
2019-02-03T13:45:05.992Z,219.38
2019-02-03T13:46:06.797Z,213.75
2019-02-03T13:47:07.239Z,225
2019-02-03T13:48:07.697Z,236.25
2019-02-03T13:49:08.742Z,174.38